Time;durP1;ratioP1;P1;durP2;ratioP2;P2;SDS_P1;SDS_P2;PMS_P1;PMS_P2;Temp;Humidity;BMP_temperature;BMP_pressure;BME280_temperature;BME280_humidity;BME280_pressure;Samples;Min_cycle;Max_cycle;Signal;HPM_P1;HPM_P2
2023/11/24 00:00:06;;;;;;;2.47;1.60;;;7.20;99.90;;;;;;4936606;29;20810;-72
2023/11/24 00:02:32;;;;;;;1.60;1.20;;;7.10;99.90;;;;;;4935728;29;20192;-73
2023/11/24 00:04:57;;;;;;;1.87;1.10;;;7.10;99.90;;;;;;4935037;29;20441;-72
2023/11/24 00:07:23;;;;;;;2.40;1.30;;;7.10;99.90;;;;;;4931818;29;20237;-72
2023/11/24 00:09:49;;;;;;;1.50;1.30;;;7.10;99.90;;;;;;4937063;29;20188;-73
2023/11/24 00:12:14;;;;;;;1.30;1.20;;;7.00;99.90;;;;;;4938082;29;20176;-73
2023/11/24 00:14:40;;;;;;;1.57;1.47;;;7.00;99.90;;;;;;4949418;29;20425;-73
2023/11/24 00:17:06;;;;;;;2.10;1.43;;;7.00;99.90;;;;;;4942803;29;20281;-72
2023/11/24 00:19:31;;;;;;;1.40;1.30;;;7.00;99.90;;;;;;4938067;29;20197;-73
2023/11/24 00:21:57;;;;;;;1.47;1.30;;;7.00;99.90;;;;;;4951370;29;20176;-74
2023/11/24 00:24:23;;;;;;;2.00;1.80;;;7.00;99.90;;;;;;4942965;28;20185;-74
2023/11/24 00:26:49;;;;;;;4.70;1.80;;;6.90;99.90;;;;;;4934056;29;20209;-73
2023/11/24 00:29:15;;;;;;;1.87;1.67;;;6.90;99.90;;;;;;4932084;29;20612;-74
2023/11/24 00:31:41;;;;;;;1.80;1.47;;;6.90;99.90;;;;;;4933984;29;20978;-74
2023/11/24 00:34:07;;;;;;;2.10;1.90;;;6.90;99.90;;;;;;4937215;29;20416;-73
2023/11/24 00:36:34;;;;;;;2.00;1.80;;;6.90;99.90;;;;;;4930871;29;20220;-74
2023/11/24 00:38:59;;;;;;;1.83;1.33;;;6.90;99.90;;;;;;4933149;29;20555;-71
2023/11/24 00:41:27;;;;;;;1.60;1.50;;;6.90;99.90;;;;;;4937096;29;20923;-72
2023/11/24 00:43:54;;;;;;;2.37;1.93;;;6.90;99.90;;;;;;4937167;29;20563;-72
2023/11/24 00:46:20;;;;;;;1.90;1.80;;;6.90;99.90;;;;;;4938567;29;20985;-71
2023/11/24 00:48:45;;;;;;;4.07;2.00;;;6.90;99.90;;;;;;4937352;29;20556;-72
2023/11/24 00:51:11;;;;;;;3.10;2.57;;;6.90;99.90;;;;;;4939368;29;20552;-72
2023/11/24 00:53:37;;;;;;;1.63;1.53;;;6.90;99.90;;;;;;4935343;29;20169;-71
2023/11/24 00:56:03;;;;;;;2.23;1.87;;;6.90;99.90;;;;;;4936774;29;20180;-71
2023/11/24 00:58:29;;;;;;;2.33;1.90;;;6.90;99.90;;;;;;4939226;29;20484;-72
2023/11/24 01:00:54;;;;;;;3.20;2.40;;;6.90;99.90;;;;;;4936643;29;20425;-72
2023/11/24 01:03:21;;;;;;;2.07;1.97;;;6.90;99.90;;;;;;4936537;29;20228;-72
2023/11/24 01:05:49;;;;;;;3.20;2.63;;;6.90;99.90;;;;;;4936533;29;20684;-72
2023/11/24 01:08:14;;;;;;;2.70;2.03;;;6.90;99.90;;;;;;4935789;29;20461;-72
2023/11/24 01:10:40;;;;;;;2.27;1.97;;;6.90;99.90;;;;;;4936133;29;20473;-72
2023/11/24 01:13:06;;;;;;;4.40;2.10;;;6.90;99.90;;;;;;4936461;29;20174;-72
2023/11/24 01:15:32;;;;;;;3.10;2.00;;;6.90;99.90;;;;;;4936372;29;20489;-72
2023/11/24 01:17:59;;;;;;;2.63;2.33;;;7.00;99.90;;;;;;4935727;29;20681;-74
2023/11/24 01:20:25;;;;;;;2.20;1.87;;;7.00;99.90;;;;;;4936327;29;20177;-74
2023/11/24 01:22:50;;;;;;;2.10;1.90;;;7.00;99.90;;;;;;4932864;29;20492;-74
2023/11/24 01:25:16;;;;;;;1.80;1.70;;;7.00;99.90;;;;;;4935519;29;20450;-74
2023/11/24 01:27:41;;;;;;;4.23;3.93;;;7.00;99.90;;;;;;4935612;29;20589;-73
2023/11/24 01:30:11;;;;;;;4.77;2.00;;;7.00;99.90;;;;;;4952719;28;20181;-73
2023/11/24 01:32:37;;;;;;;2.00;1.80;;;7.10;99.90;;;;;;4930981;29;20190;-74
2023/11/24 01:35:04;;;;;;;1.60;1.40;;;7.10;99.90;;;;;;4930989;29;20838;-74
2023/11/24 01:40:09;;;;;;;2.23;2.03;;;7.10;99.90;;;;;;4936309;29;20472;-68
2023/11/24 01:42:38;;;;;;;2.10;1.87;;;7.10;99.90;;;;;;4935875;28;20435;-68
2023/11/24 01:45:12;;;;;;;1.90;1.70;;;7.10;99.90;;;;;;4934184;29;20472;-68
2023/11/24 01:47:38;;;;;;;3.13;2.70;;;7.20;99.90;;;;;;4930155;29;20442;-71
2023/11/24 01:50:05;;;;;;;1.90;1.70;;;7.20;99.90;;;;;;4930678;29;20433;-70
2023/11/24 01:52:32;;;;;;;1.77;1.67;;;7.10;99.90;;;;;;4949709;29;20181;-70
2023/11/24 01:54:58;;;;;;;2.57;1.87;;;7.10;99.90;;;;;;4935256;29;20437;-70
2023/11/24 01:57:23;;;;;;;3.17;1.93;;;7.10;99.90;;;;;;4934801;29;20425;-70
2023/11/24 01:59:49;;;;;;;2.67;2.10;;;7.00;99.90;;;;;;4934505;29;20220;-70
2023/11/24 02:02:15;;;;;;;2.73;2.37;;;7.00;99.90;;;;;;4934324;29;20249;-70
2023/11/24 02:04:41;;;;;;;2.37;2.03;;;7.00;99.90;;;;;;4934588;29;20445;-70
2023/11/24 02:07:09;;;;;;;3.40;2.30;;;7.00;99.90;;;;;;4933922;29;20237;-70
2023/11/24 02:09:34;;;;;;;2.20;2.03;;;7.00;99.90;;;;;;4933571;29;20457;-70
2023/11/24 02:12:00;;;;;;;4.13;2.73;;;7.00;99.90;;;;;;4932491;29;20508;-70
2023/11/24 02:14:25;;;;;;;3.17;1.97;;;7.00;99.90;;;;;;4934778;29;20231;-70
2023/11/24 02:16:51;;;;;;;2.73;2.37;;;6.90;99.90;;;;;;4933879;29;20673;-70
2023/11/24 02:19:17;;;;;;;2.73;2.37;;;7.00;99.90;;;;;;4933714;29;20243;-69
2023/11/24 02:21:43;;;;;;;3.40;3.10;;;7.00;99.90;;;;;;4933912;29;20221;-69
2023/11/24 02:24:09;;;;;;;2.47;2.27;;;7.00;99.90;;;;;;4934389;29;20189;-70
2023/11/24 02:26:34;;;;;;;2.00;1.80;;;6.90;99.90;;;;;;4934569;29;20506;-70
2023/11/24 02:29:00;;;;;;;3.80;2.07;;;6.90;99.90;;;;;;4934809;29;20206;-70
2023/11/24 02:31:25;;;;;;;2.83;2.63;;;6.90;99.90;;;;;;4930584;29;20648;-69
2023/11/24 02:33:52;;;;;;;2.73;1.90;;;7.00;99.90;;;;;;4933389;29;20201;-69
2023/11/24 02:36:27;;;;;;;2.53;2.10;;;7.00;99.90;;;;;;4932211;29;20181;-69
2023/11/24 02:38:53;;;;;;;2.13;1.93;;;7.00;99.90;;;;;;4933976;29;20480;-69
2023/11/24 02:41:20;;;;;;;1.93;1.60;;;7.00;99.90;;;;;;4933529;29;20956;-70
2023/11/24 02:43:46;;;;;;;1.93;1.83;;;7.00;99.90;;;;;;4934039;29;20515;-70
2023/11/24 02:46:13;;;;;;;2.23;1.60;;;7.00;99.90;;;;;;4933290;29;20560;-70
2023/11/24 02:48:42;;;;;;;1.63;1.53;;;7.00;99.90;;;;;;4934329;29;20280;-69
2023/11/24 02:51:09;;;;;;;0.93;0.93;;;7.00;99.90;;;;;;4921745;29;20477;-69
2023/11/24 02:53:38;;;;;;;1.80;1.57;;;7.00;99.90;;;;;;4931904;29;20998;-69
2023/11/24 02:56:04;;;;;;;1.67;1.30;;;7.00;99.90;;;;;;4934390;29;20441;-70
2023/11/24 02:58:31;;;;;;;1.53;1.43;;;7.00;99.90;;;;;;4934194;29;20537;-68
2023/11/24 03:00:56;;;;;;;1.10;1.10;;;7.00;99.90;;;;;;4933603;29;20445;-67
2023/11/24 03:03:23;;;;;;;1.70;1.30;;;7.00;99.90;;;;;;4933283;29;20454;-67
2023/11/24 03:05:50;;;;;;;1.50;1.40;;;7.00;99.90;;;;;;4933471;29;20664;-68
2023/11/24 03:08:17;;;;;;;1.87;1.30;;;7.00;99.90;;;;;;4933212;29;20815;-68
2023/11/24 03:10:43;;;;;;;1.53;1.27;;;7.00;99.90;;;;;;4937015;29;20448;-67
2023/11/24 03:13:09;;;;;;;2.33;1.40;;;7.00;99.90;;;;;;4934690;29;20447;-68
2023/11/24 03:15:35;;;;;;;2.00;1.50;;;7.00;99.90;;;;;;4937515;29;20508;-68
2023/11/24 03:18:01;;;;;;;1.67;1.30;;;7.00;99.90;;;;;;4937744;29;20248;-68
2023/11/24 03:20:27;;;;;;;1.47;1.30;;;7.00;99.90;;;;;;4936643;29;20445;-68
2023/11/24 03:22:52;;;;;;;1.37;1.27;;;7.00;99.90;;;;;;4938337;29;20196;-67
2023/11/24 03:25:18;;;;;;;1.30;1.13;;;7.00;99.90;;;;;;4936595;29;20229;-68
2023/11/24 03:27:43;;;;;;;1.63;1.53;;;7.00;99.90;;;;;;4936731;29;20232;-68
2023/11/24 03:30:10;;;;;;;1.23;1.00;;;7.00;99.90;;;;;;4937592;29;20178;-68
2023/11/24 03:32:35;;;;;;;1.20;1.10;;;7.00;99.90;;;;;;4938265;29;20261;-70
2023/11/24 03:35:01;;;;;;;1.20;1.10;;;7.00;99.90;;;;;;4950158;28;20516;-70
2023/11/24 03:37:26;;;;;;;2.17;1.30;;;7.00;99.90;;;;;;4936797;29;20555;-70
2023/11/24 03:39:53;;;;;;;1.43;1.33;;;7.00;99.90;;;;;;4937655;29;20212;-70
2023/11/24 03:42:19;;;;;;;1.07;0.93;;;7.00;99.90;;;;;;4937999;29;20629;-70
2023/11/24 03:44:45;;;;;;;1.10;1.10;;;6.90;99.90;;;;;;4935400;29;20436;-70
2023/11/24 03:47:10;;;;;;;1.50;1.40;;;6.90;99.90;;;;;;4937301;29;20201;-70
2023/11/24 03:49:36;;;;;;;1.40;1.30;;;6.90;99.90;;;;;;4937422;29;20201;-70
2023/11/24 03:52:01;;;;;;;2.10;1.10;;;6.90;99.90;;;;;;4937119;29;20182;-70
2023/11/24 03:54:27;;;;;;;1.57;1.33;;;6.90;99.90;;;;;;4934963;29;20656;-70
2023/11/24 03:56:52;;;;;;;1.20;1.10;;;6.90;99.90;;;;;;4936397;29;20196;-70
2023/11/24 03:59:18;;;;;;;1.20;1.10;;;6.90;99.90;;;;;;4937321;29;20193;-70
2023/11/24 04:01:44;;;;;;;0.97;0.97;;;6.90;99.90;;;;;;4937582;29;20182;-70
2023/11/24 04:04:09;;;;;;;1.40;0.90;;;6.90;99.90;;;;;;4936456;29;20182;-70
2023/11/24 04:06:35;;;;;;;0.90;0.90;;;6.90;99.90;;;;;;4936448;29;20211;-70
2023/11/24 04:09:00;;;;;;;1.30;1.20;;;6.90;99.90;;;;;;4937041;29;20198;-70
2023/11/24 04:11:26;;;;;;;2.73;1.13;;;6.90;99.90;;;;;;4937278;29;20174;-70
2023/11/24 04:13:53;;;;;;;0.90;0.90;;;6.90;99.90;;;;;;4936283;29;20174;-70
2023/11/24 04:16:18;;;;;;;1.23;1.10;;;6.90;99.90;;;;;;4934496;29;20456;-69
2023/11/24 04:18:45;;;;;;;1.10;1.00;;;6.90;99.90;;;;;;4936179;29;20466;-70
2023/11/24 04:21:10;;;;;;;6.67;2.90;;;6.90;99.90;;;;;;4935911;29;20597;-70
2023/11/24 04:23:36;;;;;;;1.27;1.00;;;6.90;99.90;;;;;;4937098;29;20524;-70
2023/11/24 04:26:02;;;;;;;1.47;1.37;;;6.80;99.90;;;;;;4936583;29;20665;-69
2023/11/24 04:28:28;;;;;;;2.80;0.80;;;6.80;99.90;;;;;;4936444;29;20194;-69
2023/11/24 04:30:53;;;;;;;1.00;1.00;;;6.80;99.90;;;;;;4936682;29;21015;-70
2023/11/24 04:33:19;;;;;;;1.23;1.13;;;6.80;99.90;;;;;;4936996;29;20209;-70
2023/11/24 04:35:45;;;;;;;1.30;1.20;;;6.80;99.90;;;;;;4933749;29;20217;-69
2023/11/24 04:38:10;;;;;;;2.13;1.40;;;6.80;99.90;;;;;;4933782;29;20505;-69
2023/11/24 04:40:36;;;;;;;1.47;1.30;;;6.80;99.90;;;;;;4936114;29;20209;-70
2023/11/24 04:43:02;;;;;;;1.27;1.17;;;6.80;99.90;;;;;;4951445;29;20204;-70
2023/11/24 04:45:27;;;;;;;3.60;3.07;;;6.80;99.90;;;;;;4935132;29;20233;-70
2023/11/24 04:47:53;;;;;;;2.37;1.10;;;6.80;99.90;;;;;;4935660;29;20226;-70
2023/11/24 04:50:18;;;;;;;1.27;1.17;;;6.80;99.90;;;;;;4935834;29;20178;-70
2023/11/24 04:52:44;;;;;;;1.10;1.00;;;6.80;99.90;;;;;;4936254;29;20244;-70
2023/11/24 04:55:10;;;;;;;1.20;1.07;;;6.90;99.90;;;;;;4936840;29;20178;-70
2023/11/24 04:57:36;;;;;;;0.90;0.90;;;6.90;99.90;;;;;;4932898;29;20188;-70
2023/11/24 05:00:06;;;;;;;1.33;1.13;;;6.90;99.90;;;;;;4935631;29;20441;-70
2023/11/24 05:02:32;;;;;;;1.40;0.70;;;6.90;99.90;;;;;;4933127;29;20182;-70
2023/11/24 05:04:57;;;;;;;1.10;1.10;;;7.00;99.90;;;;;;4936215;29;20430;-70
2023/11/24 05:07:23;;;;;;;1.63;1.20;;;7.00;99.90;;;;;;4936234;29;20209;-68
2023/11/24 05:09:49;;;;;;;2.97;1.37;;;7.00;99.90;;;;;;4936368;29;20251;-68
2023/11/24 05:12:15;;;;;;;4.90;1.43;;;6.80;99.90;;;;;;4935634;29;20477;-69
2023/11/24 05:14:40;;;;;;;2.23;1.93;;;6.70;99.90;;;;;;4935992;29;20468;-69
2023/11/24 05:17:06;;;;;;;2.70;1.87;;;6.60;99.90;;;;;;4934405;29;20257;-69
2023/11/24 05:19:32;;;;;;;6.60;1.87;;;6.40;99.90;;;;;;4934548;29;20260;-69
2023/11/24 05:21:57;;;;;;;4.30;2.27;;;6.40;99.90;;;;;;4935981;29;20236;-69
2023/11/24 05:24:23;;;;;;;3.80;2.20;;;6.30;99.90;;;;;;4936118;29;20186;-69
2023/11/24 05:26:48;;;;;;;5.00;3.07;;;6.30;99.90;;;;;;4935751;29;20244;-69
2023/11/24 05:29:14;;;;;;;7.70;1.77;;;6.20;99.90;;;;;;4934615;29;20205;-68
2023/11/24 05:31:40;;;;;;;8.10;2.07;;;6.20;99.90;;;;;;4948629;28;20613;-67
2023/11/24 05:34:05;;;;;;;2.37;1.70;;;6.20;99.90;;;;;;4934840;29;20444;-67
2023/11/24 05:36:31;;;;;;;5.47;1.70;;;6.20;99.90;;;;;;4935142;29;20193;-67
2023/11/24 05:38:57;;;;;;;4.50;1.70;;;6.30;99.90;;;;;;4933891;29;20235;-67
2023/11/24 05:41:23;;;;;;;3.70;1.60;;;6.30;99.90;;;;;;4934721;29;20190;-67
2023/11/24 05:43:49;;;;;;;4.50;1.93;;;6.40;99.90;;;;;;4935195;29;20476;-67
2023/11/24 05:46:14;;;;;;;4.30;1.93;;;6.40;99.90;;;;;;4934561;29;20213;-69
2023/11/24 05:48:40;;;;;;;4.27;1.90;;;6.30;99.90;;;;;;4934449;29;20209;-67
2023/11/24 05:51:05;;;;;;;2.63;1.73;;;6.30;99.90;;;;;;4934175;29;20173;-67
2023/11/24 05:53:31;;;;;;;3.80;1.67;;;6.30;99.90;;;;;;4934927;29;20200;-67
2023/11/24 05:55:57;;;;;;;6.03;1.77;;;6.30;99.90;;;;;;4935701;29;20181;-67
2023/11/24 05:58:23;;;;;;;4.27;1.40;;;6.20;99.90;;;;;;4947983;28;20583;-67
2023/11/24 06:00:49;;;;;;;3.20;2.03;;;6.20;99.90;;;;;;4931653;29;21790;-67
2023/11/24 06:03:15;;;;;;;2.50;1.97;;;6.20;99.90;;;;;;4934554;29;20268;-67
2023/11/24 06:05:40;;;;;;;3.30;2.30;;;6.20;99.90;;;;;;4935103;29;20497;-67
2023/11/24 06:08:06;;;;;;;4.40;2.13;;;6.20;99.90;;;;;;4934043;29;20873;-67
2023/11/24 06:10:32;;;;;;;3.53;1.80;;;6.20;99.90;;;;;;4935231;29;20182;-69
2023/11/24 06:12:58;;;;;;;4.80;3.20;;;6.20;99.90;;;;;;4933989;29;20260;-69
2023/11/24 06:15:24;;;;;;;4.13;1.50;;;6.20;99.90;;;;;;4934087;29;20667;-69
2023/11/24 06:17:50;;;;;;;4.20;1.77;;;6.20;99.90;;;;;;4934598;29;20610;-69
2023/11/24 06:20:18;;;;;;;6.97;2.40;;;6.10;99.90;;;;;;4935479;28;20532;-69
2023/11/24 06:22:44;;;;;;;5.93;2.70;;;6.20;99.90;;;;;;4934010;29;20469;-69
2023/11/24 06:25:10;;;;;;;2.20;1.93;;;6.10;99.90;;;;;;4934911;29;20457;-69
2023/11/24 06:27:36;;;;;;;4.93;2.00;;;6.20;99.90;;;;;;4932949;29;20276;-69
2023/11/24 06:30:05;;;;;;;4.40;1.80;;;6.20;99.90;;;;;;4935288;29;20189;-69
2023/11/24 06:32:31;;;;;;;7.27;2.40;;;6.20;99.90;;;;;;4934097;29;20512;-69
2023/11/24 06:34:57;;;;;;;5.53;2.70;;;6.20;99.90;;;;;;4933912;29;20932;-69
2023/11/24 06:37:22;;;;;;;9.73;2.57;;;6.20;99.90;;;;;;4934525;29;20426;-69
2023/11/24 06:39:48;;;;;;;3.83;2.10;;;6.20;99.90;;;;;;4933404;29;20708;-69
2023/11/24 06:42:13;;;;;;;4.00;1.83;;;6.20;99.90;;;;;;4931063;29;20185;-69
2023/11/24 06:44:39;;;;;;;3.47;2.30;;;6.20;99.90;;;;;;4934025;29;20205;-69
2023/11/24 06:47:04;;;;;;;6.33;1.87;;;6.30;99.90;;;;;;4932563;29;20684;-69
2023/11/24 06:49:31;;;;;;;4.07;1.60;;;6.30;99.90;;;;;;4933371;29;20268;-69
2023/11/24 06:51:58;;;;;;;2.40;2.20;;;6.20;99.90;;;;;;4930107;29;20178;-69
2023/11/24 06:54:24;;;;;;;4.93;2.20;;;6.20;99.90;;;;;;4934492;29;20434;-69
2023/11/24 06:56:50;;;;;;;6.73;2.97;;;6.30;99.90;;;;;;4933381;29;20554;-67
2023/11/24 06:59:16;;;;;;;4.60;2.00;;;6.20;99.90;;;;;;4931964;29;20285;-67
2023/11/24 07:01:42;;;;;;;4.20;2.27;;;6.30;99.90;;;;;;4947425;28;20196;-67
2023/11/24 07:04:07;;;;;;;5.47;3.17;;;6.30;99.90;;;;;;4932682;29;20445;-67
2023/11/24 07:06:34;;;;;;;6.57;2.60;;;6.30;99.90;;;;;;4932946;29;20217;-67
2023/11/24 07:08:59;;;;;;;6.07;2.67;;;6.30;99.90;;;;;;4933414;29;20197;-69
2023/11/24 07:11:25;;;;;;;7.53;3.20;;;6.30;99.90;;;;;;4934287;29;20429;-69
2023/11/24 07:13:51;;;;;;;6.53;2.20;;;6.30;99.90;;;;;;4932247;29;20178;-69
2023/11/24 07:16:16;;;;;;;6.83;2.57;;;6.30;99.90;;;;;;4933271;29;20204;-69
2023/11/24 07:18:42;;;;;;;6.63;3.30;;;6.30;99.90;;;;;;4930186;29;20465;-69
2023/11/24 07:21:08;;;;;;;3.43;2.23;;;6.40;99.90;;;;;;4932995;29;20184;-69
2023/11/24 07:23:37;;;;;;;4.50;2.13;;;6.40;99.90;;;;;;4932076;29;20253;-69
2023/11/24 07:26:04;;;;;;;3.83;2.63;;;6.40;99.90;;;;;;4933082;29;20625;-67
2023/11/24 07:28:29;;;;;;;4.00;2.20;;;6.40;99.90;;;;;;4933779;29;20501;-70
2023/11/24 07:30:55;;;;;;;4.17;2.00;;;6.50;99.90;;;;;;4934387;29;20433;-70
2023/11/24 07:33:20;;;;;;;2.50;1.73;;;6.50;99.90;;;;;;4933719;29;20225;-67
2023/11/24 07:35:46;;;;;;;4.53;2.17;;;6.50;99.90;;;;;;4933393;29;20728;-67
2023/11/24 07:38:11;;;;;;;7.37;2.07;;;6.50;99.90;;;;;;4955974;23;20221;-73
2023/11/24 07:40:37;;;;;;;4.60;2.13;;;6.50;99.90;;;;;;4931765;29;20571;-73
2023/11/24 07:43:03;;;;;;;2.90;1.90;;;6.50;99.90;;;;;;4932772;29;20182;-73
2023/11/24 07:45:29;;;;;;;3.87;2.80;;;6.60;99.90;;;;;;4932042;29;20210;-73
2023/11/24 07:47:54;;;;;;;4.13;2.13;;;6.60;99.90;;;;;;4933757;29;20422;-73
2023/11/24 07:50:20;;;;;;;3.57;1.00;;;6.60;99.90;;;;;;4933112;29;20548;-74
2023/11/24 07:52:46;;;;;;;2.30;1.97;;;6.70;99.90;;;;;;4934031;29;20209;-74
2023/11/24 07:55:13;;;;;;;5.53;2.07;;;6.70;99.90;;;;;;4931492;29;20265;-74
2023/11/24 07:57:39;;;;;;;3.10;2.60;;;6.80;99.90;;;;;;4936740;29;20445;-71
2023/11/24 08:00:09;;;;;;;3.73;2.60;;;6.80;99.90;;;;;;4934593;29;20471;-71
2023/11/24 08:02:35;;;;;;;6.20;2.43;;;6.90;99.90;;;;;;4934683;29;20479;-71
2023/11/24 08:05:00;;;;;;;4.77;2.40;;;6.90;99.90;;;;;;4933514;29;20477;-71
2023/11/24 08:07:26;;;;;;;9.23;2.47;;;6.90;99.90;;;;;;4936026;29;20804;-71
2023/11/24 08:09:51;;;;;;;4.47;2.27;;;7.00;99.90;;;;;;4936864;29;20289;-71
2023/11/24 08:12:17;;;;;;;5.43;2.63;;;7.00;99.90;;;;;;4936297;29;20197;-71
2023/11/24 08:14:42;;;;;;;5.23;2.30;;;7.00;99.90;;;;;;4936102;29;20190;-71
2023/11/24 08:17:08;;;;;;;5.90;3.07;;;7.00;99.90;;;;;;4935355;29;20193;-71
2023/11/24 08:19:34;;;;;;;11.43;3.73;;;7.10;99.90;;;;;;4935951;29;20213;-71
2023/11/24 08:22:01;;;;;;;8.30;2.50;;;7.10;99.90;;;;;;4935988;29;20317;-71
2023/11/24 08:24:26;;;;;;;6.30;2.10;;;7.00;99.90;;;;;;4935366;29;20528;-71
2023/11/24 08:26:52;;;;;;;2.83;2.13;;;7.10;99.90;;;;;;4934066;29;20248;-71
2023/11/24 08:29:18;;;;;;;2.57;2.20;;;7.00;99.90;;;;;;4935930;29;20248;-71
2023/11/24 08:31:45;;;;;;;4.73;2.47;;;7.00;99.90;;;;;;4935073;29;20559;-71
2023/11/24 08:34:11;;;;;;;5.70;2.60;;;7.00;99.90;;;;;;4936456;29;20700;-71
2023/11/24 08:36:36;;;;;;;7.50;2.93;;;7.00;99.90;;;;;;4935569;29;20574;-71
2023/11/24 08:39:08;;;;;;;7.37;4.53;;;7.00;99.90;;;;;;4936003;29;20217;-71
2023/11/24 08:41:33;;;;;;;6.93;2.40;;;7.00;99.90;;;;;;4936221;29;20182;-71
2023/11/24 08:43:59;;;;;;;8.93;2.97;;;7.00;99.90;;;;;;4936466;29;20447;-71
2023/11/24 08:46:24;;;;;;;10.13;3.10;;;7.00;99.90;;;;;;4930527;29;20213;-71
2023/11/24 08:48:50;;;;;;;4.60;2.80;;;7.10;99.90;;;;;;4935450;29;20277;-71
2023/11/24 08:51:17;;;;;;;6.60;3.00;;;7.20;99.90;;;;;;4935170;29;20197;-71
2023/11/24 08:53:43;;;;;;;10.67;2.73;;;7.30;99.90;;;;;;4933306;29;20541;-71
2023/11/24 08:56:10;;;;;;;5.03;2.60;;;7.40;99.90;;;;;;4936109;29;20441;-70
2023/11/24 08:58:37;;;;;;;4.03;2.80;;;7.60;99.90;;;;;;4935294;29;20469;-70
2023/11/24 09:01:02;;;;;;;6.33;2.57;;;7.70;99.90;;;;;;4935756;29;20631;-70
2023/11/24 09:03:28;;;;;;;12.73;4.10;;;7.90;99.90;;;;;;4935465;29;21012;-70
2023/11/24 09:05:57;;;;;;;5.47;2.47;;;8.00;99.90;;;;;;4933950;29;20213;-69
2023/11/24 09:08:23;;;;;;;3.80;1.97;;;8.00;99.90;;;;;;4932447;29;20708;-71
2023/11/24 09:10:49;;;;;;;4.20;2.47;;;7.90;99.90;;;;;;4933062;29;20441;-70
2023/11/24 09:13:15;;;;;;;8.27;2.70;;;7.80;99.90;;;;;;4933918;29;20465;-70
2023/11/24 09:15:42;;;;;;;3.73;2.47;;;7.70;99.90;;;;;;4934438;29;20178;-70
2023/11/24 09:18:08;;;;;;;7.47;3.60;;;7.60;99.90;;;;;;4934190;29;20266;-71
2023/11/24 09:20:34;;;;;;;7.33;2.83;;;7.60;99.90;;;;;;4934435;29;20449;-72
2023/11/24 09:22:59;;;;;;;8.77;3.00;;;7.50;99.90;;;;;;4935084;29;20449;-70
2023/11/24 09:25:26;;;;;;;6.50;3.10;;;7.50;99.90;;;;;;4934256;29;20298;-70
2023/11/24 09:27:52;;;;;;;12.70;2.60;;;7.40;99.90;;;;;;4933435;29;20181;-71
2023/11/24 09:30:17;;;;;;;8.83;3.03;;;7.40;99.90;;;;;;4934093;29;20508;-70
2023/11/24 09:32:43;;;;;;;10.70;4.00;;;7.40;99.90;;;;;;4934766;29;20603;-70
2023/11/24 09:35:09;;;;;;;10.53;4.40;;;7.40;99.90;;;;;;4934464;29;20591;-70
2023/11/24 09:37:35;;;;;;;14.03;3.47;;;7.50;99.90;;;;;;4933773;29;20205;-70
2023/11/24 09:40:03;;;;;;;8.67;3.10;;;7.60;99.90;;;;;;4934578;29;20975;-70
2023/11/24 09:42:40;;;;;;;8.63;2.43;;;7.70;99.90;;;;;;4935073;29;20192;-70
2023/11/24 09:45:14;;;;;;;5.20;2.80;;;7.70;99.90;;;;;;4933018;29;20441;-70
2023/11/24 09:47:43;;;;;;;12.20;3.77;;;7.60;99.90;;;;;;4931994;29;20524;-70
2023/11/24 09:50:12;;;;;;;6.13;3.13;;;7.60;99.90;;;;;;4933579;29;20457;-70
2023/11/24 09:52:42;;;;;;;6.13;3.13;;;7.50;99.90;;;;;;4933828;29;20445;-70
2023/11/24 09:55:08;;;;;;;7.00;3.10;;;7.60;99.90;;;;;;4931557;29;20535;-70
2023/11/24 09:57:34;;;;;;;9.47;3.40;;;7.60;99.90;;;;;;4933990;29;20441;-70
2023/11/24 09:59:59;;;;;;;7.80;2.67;;;7.70;99.90;;;;;;4933442;29;20463;-69
2023/11/24 10:02:26;;;;;;;8.37;2.90;;;7.90;99.90;;;;;;4933632;29;20579;-70
2023/11/24 10:04:52;;;;;;;8.57;2.90;;;7.80;99.90;;;;;;4934384;29;20532;-70
2023/11/24 10:07:22;;;;;;;4.70;2.20;;;7.80;99.90;;;;;;4933284;29;20477;-70
2023/11/24 10:09:50;;;;;;;10.80;2.87;;;7.80;99.90;;;;;;4934122;29;20547;-71
2023/11/24 10:12:17;;;;;;;7.67;3.30;;;7.70;99.90;;;;;;4933869;29;20448;-70
2023/11/24 10:14:43;;;;;;;11.90;3.17;;;7.60;99.90;;;;;;4934680;29;20555;-70
2023/11/24 10:17:10;;;;;;;11.70;3.60;;;7.70;99.90;;;;;;4933146;29;20448;-70
2023/11/24 10:19:36;;;;;;;8.20;3.20;;;7.90;99.90;;;;;;4921813;29;20879;-70
2023/11/24 10:22:02;;;;;;;8.77;3.70;;;7.90;99.90;;;;;;4932064;29;20449;-70
2023/11/24 10:24:35;;;;;;;11.53;3.60;;;7.90;99.90;;;;;;4933743;29;20880;-70
2023/11/24 10:27:21;;;;;;;9.17;3.90;;;7.90;99.90;;;;;;4934252;29;20524;-73
2023/11/24 10:29:51;;;;;;;15.50;4.10;;;7.90;99.90;;;;;;4926855;29;20468;-69
2023/11/24 10:32:18;;;;;;;6.20;3.33;;;8.00;99.90;;;;;;4933438;29;20497;-70
2023/11/24 10:34:44;;;;;;;10.13;3.57;;;8.10;99.90;;;;;;4934556;29;20445;-71
2023/11/24 10:37:17;;;;;;;5.80;3.20;;;8.30;99.90;;;;;;4933564;29;20452;-71
2023/11/24 10:39:45;;;;;;;9.73;2.80;;;8.40;99.90;;;;;;4933039;29;20488;-71
2023/11/24 10:42:11;;;;;;;4.77;2.80;;;9.40;99.90;;;;;;4934242;29;20564;-72
2023/11/24 10:44:40;;;;;;;4.00;2.50;;;11.30;99.90;;;;;;4934323;29;20456;-72
2023/11/24 10:47:09;;;;;;;6.57;3.23;;;13.10;99.90;;;;;;4933123;29;20569;-71
2023/11/24 10:50:05;;;;;;;6.50;2.43;;;15.10;99.90;;;;;;4947284;29;20828;-71
2023/11/24 10:52:36;;;;;;;5.00;2.90;;;17.10;99.90;;;;;;4928566;29;20469;-71
2023/11/24 10:55:10;;;;;;;8.17;3.63;;;16.40;99.90;;;;;;4932713;29;20453;-71
2023/11/24 10:57:36;;;;;;;7.53;2.93;;;17.10;99.90;;;;;;4933364;29;20900;-71
2023/11/24 11:00:03;;;;;;;7.17;3.27;;;17.50;99.90;;;;;;4931997;29;20845;-71
2023/11/24 11:02:29;;;;;;;4.83;2.60;;;18.70;99.10;;;;;;4933540;29;20464;-71
2023/11/24 11:05:13;;;;;;;10.77;2.67;;;18.60;97.10;;;;;;4933739;29;20806;-71
2023/11/24 11:08:06;;;;;;;6.90;3.40;;;17.40;99.90;;;;;;4932564;29;20445;-71
2023/11/24 11:10:36;;;;;;;6.80;3.50;;;16.90;99.90;;;;;;4933038;29;20437;-72
2023/11/24 11:13:03;;;;;;;4.70;2.50;;;16.30;99.90;;;;;;4930653;29;20433;-72
2023/11/24 11:15:31;;;;;;;4.40;2.70;;;14.60;99.90;;;;;;4932921;29;20528;-71
2023/11/24 11:18:15;;;;;;;8.83;2.77;;;13.40;99.90;;;;;;4932887;29;20460;-69
2023/11/24 11:20:44;;;;;;;5.43;3.50;;;11.90;99.90;;;;;;4932260;29;20440;-71
2023/11/24 11:23:10;;;;;;;4.33;2.73;;;11.50;99.90;;;;;;4932978;29;20567;-72
2023/11/24 11:25:36;;;;;;;7.33;3.17;;;11.20;99.90;;;;;;4933273;29;20468;-67
2023/11/24 11:28:17;;;;;;;7.60;2.93;;;10.70;99.90;;;;;;4932850;29;20445;-68
2023/11/24 11:30:44;;;;;;;6.00;2.93;;;10.60;99.90;;;;;;4935945;29;20437;-69
2023/11/24 11:33:13;;;;;;;10.10;2.50;;;10.40;99.90;;;;;;4936493;29;20541;-72
2023/11/24 11:35:42;;;;;;;6.40;2.60;;;9.90;99.90;;;;;;4936755;29;20445;-69
2023/11/24 11:38:13;;;;;;;7.57;2.60;;;9.70;99.90;;;;;;4936818;29;20516;-70
2023/11/24 11:40:47;;;;;;;8.20;2.00;;;9.50;99.90;;;;;;4937562;29;20448;-69
2023/11/24 11:43:15;;;;;;;10.30;3.50;;;9.50;99.90;;;;;;4936424;29;20467;-69
2023/11/24 11:45:48;;;;;;;5.83;2.63;;;9.10;99.90;;;;;;4936533;29;20471;-66
2023/11/24 11:48:14;;;;;;;8.20;2.13;;;8.80;99.90;;;;;;4936448;29;20994;-70
2023/11/24 11:50:54;;;;;;;5.33;2.50;;;8.80;99.90;;;;;;4934043;29;20433;-70
2023/11/24 11:53:21;;;;;;;8.40;2.43;;;8.70;99.90;;;;;;4933923;29;20475;-70
2023/11/24 11:55:47;;;;;;;7.20;2.83;;;8.50;99.90;;;;;;4934195;29;20489;-69
2023/11/24 11:58:12;;;;;;;7.10;2.60;;;8.20;99.90;;;;;;4942403;29;20429;-70
2023/11/24 12:00:39;;;;;;;10.03;2.90;;;8.00;99.90;;;;;;4936301;29;20433;-69
2023/11/24 12:03:05;;;;;;;7.57;3.20;;;7.90;99.90;;;;;;4932580;29;20182;-68
2023/11/24 12:05:32;;;;;;;7.10;2.90;;;7.80;99.90;;;;;;4935453;29;20461;-70
2023/11/24 12:07:58;;;;;;;7.17;2.40;;;7.60;99.90;;;;;;4942480;29;20969;-69
2023/11/24 12:10:29;;;;;;;4.40;2.47;;;7.40;99.90;;;;;;4935096;29;20461;-70
2023/11/24 12:12:55;;;;;;;8.03;3.40;;;7.30;99.90;;;;;;4936435;29;20184;-70
2023/11/24 12:15:23;;;;;;;7.83;2.63;;;7.30;99.90;;;;;;4934325;29;20807;-70
2023/11/24 12:17:48;;;;;;;6.10;2.60;;;7.20;99.90;;;;;;4933470;29;20174;-71
2023/11/24 12:20:14;;;;;;;7.43;3.20;;;7.30;99.90;;;;;;4936796;29;21038;-69
2023/11/24 12:22:43;;;;;;;4.00;2.77;;;7.30;99.90;;;;;;4936634;29;20237;-69
2023/11/24 12:25:13;;;;;;;10.20;2.83;;;7.20;99.90;;;;;;4935658;29;20447;-70
2023/11/24 12:27:45;;;;;;;8.37;3.13;;;7.20;99.90;;;;;;4937114;29;20432;-70
2023/11/24 12:30:12;;;;;;;13.73;4.33;;;7.20;99.90;;;;;;4936381;29;20456;-70
2023/11/24 12:32:39;;;;;;;5.30;2.33;;;7.10;99.90;;;;;;4937299;29;20421;-70
2023/11/24 12:35:07;;;;;;;6.43;2.60;;;7.00;99.90;;;;;;4935449;29;20444;-70
2023/11/24 12:37:34;;;;;;;8.27;3.67;;;6.90;99.90;;;;;;4933876;29;20437;-70
2023/11/24 12:40:00;;;;;;;9.53;3.57;;;6.80;99.90;;;;;;4935872;29;20477;-70
2023/11/24 12:42:29;;;;;;;5.00;2.90;;;6.70;99.90;;;;;;4936156;29;20444;-71
2023/11/24 12:44:55;;;;;;;6.53;3.30;;;6.70;99.90;;;;;;4935928;29;20468;-71
2023/11/24 12:47:24;;;;;;;7.73;2.50;;;6.70;99.90;;;;;;4934858;29;20465;-70
2023/11/24 12:50:14;;;;;;;3.87;2.17;;;6.60;99.90;;;;;;4935749;29;21068;-70
2023/11/24 12:52:44;;;;;;;6.00;2.30;;;6.30;99.90;;;;;;4935127;29;20437;-71
2023/11/24 12:55:10;;;;;;;5.30;2.33;;;6.30;99.90;;;;;;4935175;29;20439;-70